createdAt,value
2023-01-13T00:03:02.188Z,61
2023-01-13T00:13:11.084Z,62
2023-01-13T00:23:20.092Z,63
2023-01-13T00:33:28.976Z,64
2023-01-13T00:43:37.981Z,64
2023-01-13T00:53:46.887Z,64
2023-01-13T01:03:56.204Z,64
2023-01-13T01:14:05.020Z,63
2023-01-13T01:24:13.802Z,63
2023-01-13T01:34:22.400Z,63
2023-01-13T01:44:30.782Z,63
2023-01-13T01:54:39.244Z,62
2023-01-13T02:04:47.911Z,62
2023-01-13T02:14:56.356Z,63
2023-01-13T02:25:04.772Z,63
2023-01-13T02:35:13.256Z,63
2023-01-13T02:45:22.553Z,64
2023-01-13T02:55:30.839Z,64
2023-01-13T03:05:39.125Z,64
2023-01-13T03:15:47.007Z,63
2023-01-13T03:25:54.974Z,63
2023-01-13T03:36:03.010Z,63
2023-01-13T03:46:12.230Z,63
2023-01-13T03:56:20.187Z,63
2023-01-13T04:06:28.282Z,63
2023-01-13T04:16:37.653Z,63
2023-01-13T04:26:43.718Z,64
2023-01-13T04:36:51.745Z,64
2023-01-13T04:46:59.654Z,64
2023-01-13T04:57:07.560Z,66
2023-01-13T05:07:15.491Z,65
2023-01-13T05:17:23.415Z,65
2023-01-13T05:27:31.455Z,65
2023-01-13T05:37:39.501Z,65
2023-01-13T05:47:47.417Z,66
2023-01-13T05:57:55.529Z,66
2023-01-13T06:08:03.426Z,66
2023-01-13T06:18:11.451Z,64
2023-01-13T06:28:20.761Z,66
2023-01-13T06:38:28.914Z,66
2023-01-13T06:48:36.940Z,65
2023-01-13T06:58:45.160Z,65
2023-01-13T07:08:56.214Z,65
2023-01-13T07:18:58.036Z,65
2023-01-13T07:29:07.030Z,66
2023-01-13T07:39:17.332Z,66
2023-01-13T07:49:25.544Z,65
2023-01-13T07:59:35.566Z,65
2023-01-13T08:09:36.779Z,64
2023-01-13T08:19:46.739Z,64
2023-01-13T08:29:55.208Z,63
2023-01-13T08:40:03.210Z,63
2023-01-13T08:50:11.337Z,63
2023-01-13T09:00:23.134Z,63
2023-01-13T09:10:24.074Z,62
2023-01-13T09:20:22.011Z,61
2023-01-13T09:30:30.007Z,60
2023-01-13T09:40:37.952Z,59
2023-01-13T09:50:45.826Z,59
2023-01-13T10:00:53.949Z,58
2023-01-13T10:11:02.043Z,58
2023-01-13T10:21:10.568Z,58
2023-01-13T10:31:18.497Z,58
2023-01-13T10:41:26.488Z,57
2023-01-13T10:51:34.897Z,55
2023-01-13T11:01:43.107Z,53
2023-01-13T11:11:53.344Z,52
2023-01-13T11:22:01.344Z,51
2023-01-13T11:32:09.240Z,50
2023-01-13T11:42:17.242Z,49
2023-01-13T11:52:25.278Z,49
2023-01-13T12:02:33.464Z,49
2023-01-13T12:12:41.428Z,50
2023-01-13T12:22:49.854Z,48
2023-01-13T12:32:57.884Z,48
2023-01-13T12:43:05.905Z,47
2023-01-13T12:53:13.857Z,46
2023-01-13T13:03:21.925Z,46
2023-01-13T13:13:29.970Z,46
2023-01-13T13:23:37.951Z,45
2023-01-13T13:33:45.933Z,44
2023-01-13T13:43:56.508Z,44
2023-01-13T13:54:04.592Z,43
2023-01-13T14:04:12.487Z,42
2023-01-13T14:14:20.583Z,42
2023-01-13T14:24:28.893Z,41
2023-01-13T14:34:36.949Z,41
2023-01-13T14:44:46.093Z,39
2023-01-13T14:54:54.867Z,38
2023-01-13T15:04:54.909Z,40
2023-01-13T15:15:02.848Z,39
2023-01-13T15:25:10.426Z,40
2023-01-13T15:35:18.485Z,41
2023-01-13T15:45:26.577Z,41
2023-01-13T15:55:34.924Z,40
2023-01-13T16:05:43.048Z,42
2023-01-13T16:15:51.146Z,46
2023-01-13T16:25:58.733Z,47
2023-01-13T16:36:09.561Z,49
2023-01-13T16:46:13.317Z,49
2023-01-13T16:56:21.312Z,49
2023-01-13T17:06:29.177Z,49
2023-01-13T17:16:37.211Z,50
2023-01-13T17:26:45.195Z,49
2023-01-13T17:36:53.305Z,49
2023-01-13T17:47:01.775Z,49
2023-01-13T17:57:09.762Z,49
2023-01-13T18:07:20.064Z,50
2023-01-13T18:17:20.703Z,51
2023-01-13T18:27:31.601Z,52
2023-01-13T18:37:32.611Z,52
2023-01-13T18:57:45.416Z,53
2023-01-13T19:07:48.613Z,54
2023-01-13T19:18:04.139Z,55
2023-01-13T19:28:04.566Z,55
2023-01-13T19:38:32.457Z,56
2023-01-13T19:48:31.701Z,57
2023-01-13T19:58:35.439Z,57
2023-01-13T20:08:33.451Z,58
2023-01-13T20:18:36.217Z,59
2023-01-13T20:28:42.356Z,59
2023-01-13T20:38:45.328Z,59
2023-01-13T20:48:45.517Z,58
2023-01-13T20:58:45.321Z,58
2023-01-13T21:08:53.416Z,59
2023-01-13T21:19:02.660Z,60
2023-01-13T21:29:01.988Z,60
2023-01-13T21:39:10.021Z,61
2023-01-13T21:49:18.276Z,61
2023-01-13T21:59:27.283Z,61
2023-01-13T22:09:36.640Z,62
2023-01-13T22:19:44.770Z,63
2023-01-13T22:29:52.867Z,64
2023-01-13T22:40:00.941Z,63
2023-01-13T22:50:08.978Z,64
2023-01-13T23:00:16.795Z,64
2023-01-13T23:10:24.722Z,65
2023-01-13T23:20:33.949Z,64
2023-01-13T23:30:42.124Z,65
2023-01-13T23:40:49.954Z,65
2023-01-13T23:50:58.026Z,65
